Time;durP1;ratioP1;P1;durP2;ratioP2;P2;SDS_P1;SDS_P2;PMS_P1;PMS_P2;Temp;Humidity;BMP_temperature;BMP_pressure;BME280_temperature;BME280_humidity;BME280_pressure;Samples;Min_cycle;Max_cycle;Signal;HPM_P1;HPM_P2
2022/05/22 00:01:36;;;;;;;1.98;1.50;;;;;;;18.61;52.48;100559.22;4972351;28;20885;-72
2022/05/22 00:04:01;;;;;;;1.73;1.20;;;;;;;18.53;52.42;100566.22;4972363;28;20404;-72
2022/05/22 00:06:27;;;;;;;1.42;1.05;;;;;;;18.47;52.32;100566.53;4969041;28;20443;-72
2022/05/22 00:08:52;;;;;;;2.17;1.40;;;;;;;18.42;52.07;100564.66;4971084;28;20412;-72
2022/05/22 00:11:18;;;;;;;2.17;0.90;;;;;;;18.32;52.20;100551.06;4972300;28;20749;-72
2022/05/22 00:13:43;;;;;;;1.25;1.15;;;;;;;18.16;52.71;100546.88;4972249;28;20448;-72
2022/05/22 00:18:52;;;;;;;2.20;1.05;;;;;;;17.99;53.47;100558.31;4967784;28;20406;-72
2022/05/22 00:21:17;;;;;;;1.47;1.37;;;;;;;17.97;53.67;100548.75;4976086;28;20404;-72
2022/05/22 00:23:44;;;;;;;2.10;1.10;;;;;;;17.96;53.87;100544.38;4975950;28;20400;-72
2022/05/22 00:26:09;;;;;;;1.40;1.30;;;;;;;17.92;54.00;100546.06;4975828;28;20462;-72
2022/05/22 00:28:34;;;;;;;3.60;1.05;;;;;;;17.92;54.18;100546.88;4975855;28;20782;-72
2022/05/22 00:31:00;;;;;;;2.47;1.37;;;;;;;17.94;54.11;100543.88;4975889;28;20408;-72
2022/05/22 00:33:27;;;;;;;1.73;1.10;;;;;;;17.93;54.65;100554.00;4974411;28;20970;-72
2022/05/22 00:35:52;;;;;;;2.03;0.80;;;;;;;17.91;54.86;100542.53;4975856;28;20390;-72
2022/05/22 00:38:17;;;;;;;3.00;1.13;;;;;;;17.87;55.13;100548.88;4971094;28;20397;-72
2022/05/22 00:40:43;;;;;;;2.95;1.20;;;;;;;17.84;55.08;100544.78;4983783;28;20464;-72
2022/05/22 00:43:43;;;;;;;1.07;1.00;;;;;;;17.84;55.13;100533.00;4974762;28;20412;-72
2022/05/22 00:46:13;;;;;;;3.70;1.45;;;;;;;17.81;55.27;100537.16;4975254;28;20495;-72
2022/05/22 00:48:40;;;;;;;2.00;1.00;;;;;;;17.81;54.83;100539.06;4975383;28;20792;-72
2022/05/22 00:51:12;;;;;;;3.87;1.17;;;;;;;17.77;55.12;100535.28;4974621;28;20423;-72
2022/05/22 00:53:41;;;;;;;3.30;1.05;;;;;;;17.69;55.12;100523.00;4975395;28;20400;-72
2022/05/22 00:56:10;;;;;;;2.63;1.10;;;;;;;17.67;54.87;100524.41;4975693;28;20380;-72
2022/05/22 00:58:35;;;;;;;3.57;1.17;;;;;;;17.64;54.62;100531.31;4975318;28;20480;-72
2022/05/22 01:01:02;;;;;;;2.92;0.90;;;;;;;17.61;54.47;100529.97;4974428;28;20456;-72
2022/05/22 01:03:28;;;;;;;1.00;0.90;;;;;;;17.55;54.37;100533.84;4975243;28;20399;-72
2022/05/22 01:06:12;;;;;;;3.97;1.30;;;;;;;17.46;54.29;100535.53;4975173;28;20392;-72
2022/05/22 01:08:39;;;;;;;2.10;1.00;;;;;;;17.30;54.47;100530.47;4974367;28;20419;-72
2022/05/22 01:11:13;;;;;;;1.77;1.40;;;;;;;17.12;54.86;100532.81;4974191;28;20496;-72
2022/05/22 01:13:43;;;;;;;1.05;1.05;;;;;;;17.11;54.99;100533.13;4963777;28;20918;-72
2022/05/22 01:16:08;;;;;;;2.33;1.10;;;;;;;17.13;54.92;100533.63;4975116;28;20716;-72
2022/05/22 01:18:49;;;;;;;3.57;1.30;;;;;;;17.13;54.71;100528.16;4973915;28;20423;-72
2022/05/22 01:21:18;;;;;;;1.90;0.98;;;;;;;17.17;54.68;100531.97;4975232;28;20407;-72
2022/05/22 01:23:44;;;;;;;1.95;1.20;;;;;;;17.20;54.34;100522.34;4974156;28;20389;-72
2022/05/22 01:26:10;;;;;;;1.20;1.10;;;;;;;17.17;54.33;100525.66;4974279;28;20903;-72
2022/05/22 01:28:36;;;;;;;3.50;1.40;;;;;;;17.12;54.29;100532.81;4974847;28;20396;-72
2022/05/22 01:31:01;;;;;;;1.10;1.00;;;;;;;17.08;54.20;100534.53;4974655;28;20416;-72
2022/05/22 01:33:28;;;;;;;2.85;1.25;;;;;;;17.01;54.26;100535.94;4974735;28;20420;-72
2022/05/22 01:35:53;;;;;;;2.50;1.13;;;;;;;16.96;54.41;100541.44;4971881;28;20443;-72
2022/05/22 01:38:19;;;;;;;1.37;1.10;;;;;;;16.89;54.37;100530.81;4972143;28;20404;-72
2022/05/22 01:40:45;;;;;;;1.20;1.10;;;;;;;16.90;54.41;100542.56;4974538;28;20410;-72
2022/05/22 01:43:10;;;;;;;1.75;1.13;;;;;;;16.83;54.27;100534.69;4974634;28;20400;-72
2022/05/22 01:45:35;;;;;;;3.00;1.33;;;;;;;16.77;54.57;100540.47;4973727;28;20816;-72
2022/05/22 01:48:01;;;;;;;2.07;1.10;;;;;;;16.77;54.62;100537.75;4973256;28;20495;-72
2022/05/22 01:50:26;;;;;;;2.50;1.00;;;;;;;16.75;54.49;100538.03;4974480;28;20408;-72
2022/05/22 01:52:52;;;;;;;1.97;1.03;;;;;;;16.69;54.81;100536.44;4973240;28;20400;-72
2022/05/22 01:55:17;;;;;;;0.93;0.93;;;;;;;16.60;55.18;100530.72;4973720;28;20455;-72
2022/05/22 01:57:43;;;;;;;1.17;1.08;;;;;;;16.54;55.74;100520.88;4974176;28;20458;-72
2022/05/22 02:00:13;;;;;;;1.50;1.15;;;;;;;16.51;56.18;100512.44;4974232;28;20486;-72
2022/05/22 02:02:38;;;;;;;2.00;1.50;;;;;;;16.58;56.10;100516.53;4972590;28;20769;-72
2022/05/22 02:05:04;;;;;;;1.50;1.20;;;;;;;16.65;55.83;100508.00;4974256;28;20507;-72
2022/05/22 02:10:13;;;;;;;1.70;1.40;;;;;;;16.76;55.73;100497.81;4974393;28;20531;-71
2022/05/22 02:12:39;;;;;;;2.53;1.10;;;;;;;16.77;55.69;100496.69;4972972;28;20921;-71
2022/05/22 02:15:06;;;;;;;0.90;0.90;;;;;;;16.78;55.56;100498.34;4973718;28;20395;-71
2022/05/22 02:17:32;;;;;;;1.83;1.00;;;;;;;16.78;55.44;100492.84;4974171;28;20839;-71
2022/05/22 02:19:57;;;;;;;0.88;0.80;;;;;;;16.74;54.97;100502.72;4972613;28;20408;-71
2022/05/22 02:22:23;;;;;;;1.10;0.83;;;;;;;16.69;54.82;100494.56;4973104;28;20424;-71
2022/05/22 02:24:49;;;;;;;1.10;0.80;;;;;;;16.63;55.14;100495.72;4973772;28;20970;-71
2022/05/22 02:27:15;;;;;;;1.30;1.20;;;;;;;16.56;55.27;100496.03;4973682;28;20479;-71
2022/05/22 02:29:40;;;;;;;0.80;0.77;;;;;;;16.49;55.55;100490.03;4973742;28;20500;-71
2022/05/22 02:32:06;;;;;;;1.20;1.10;;;;;;;16.46;55.71;100490.59;4972775;28;20783;-72
2022/05/22 02:34:33;;;;;;;1.80;1.13;;;;;;;16.40;55.76;100486.25;4973497;28;20420;-71
2022/05/22 02:36:58;;;;;;;1.45;0.98;;;;;;;16.37;55.73;100489.53;4972661;28;20404;-72
2022/05/22 02:39:23;;;;;;;1.60;1.00;;;;;;;16.30;55.76;100484.38;4972556;28;20430;-71
2022/05/22 02:41:49;;;;;;;1.50;1.40;;;;;;;16.28;56.01;100480.28;4973434;28;20446;-71
2022/05/22 02:44:14;;;;;;;1.50;1.17;;;;;;;16.32;55.97;100478.63;4973607;28;20451;-72
2022/05/22 02:46:41;;;;;;;1.47;1.27;;;;;;;16.34;55.88;100474.50;4973431;28;20396;-71
2022/05/22 02:49:07;;;;;;;4.63;1.02;;;;;;;16.37;55.90;100473.94;4972327;28;20396;-72
2022/05/22 02:51:33;;;;;;;1.00;0.98;;;;;;;16.43;55.83;100466.53;4973318;28;20427;-72
2022/05/22 02:53:58;;;;;;;3.72;1.10;;;;;;;16.46;55.79;100465.97;4973228;28;20415;-72
2022/05/22 02:56:24;;;;;;;1.90;0.93;;;;;;;16.45;55.92;100467.06;4973244;28;20480;-71
2022/05/22 02:58:50;;;;;;;1.10;1.00;;;;;;;16.46;55.81;100458.59;4971838;28;20514;-71
2022/05/22 03:01:15;;;;;;;1.17;1.08;;;;;;;16.49;55.96;100457.19;4973207;28;20491;-72
2022/05/22 03:03:41;;;;;;;3.10;0.97;;;;;;;16.51;55.81;100454.97;4973125;28;20392;-71
2022/05/22 03:08:50;;;;;;;2.40;1.00;;;;;;;16.39;55.31;100455.34;4972380;28;20506;-71
2022/05/22 03:11:16;;;;;;;2.00;0.90;;;;;;;16.34;55.33;100458.09;4973014;28;20491;-71
2022/05/22 03:13:41;;;;;;;2.60;0.77;;;;;;;16.28;55.35;100461.97;4971350;28;20891;-71
2022/05/22 03:16:07;;;;;;;4.70;1.35;;;;;;;16.26;55.46;100461.44;4972377;28;20423;-72
2022/05/22 03:18:32;;;;;;;1.20;1.10;;;;;;;16.25;55.18;100450.75;4972901;28;20923;-71
2022/05/22 03:20:58;;;;;;;1.13;0.83;;;;;;;16.24;55.24;100455.41;4973007;28;20403;-71
2022/05/22 03:23:23;;;;;;;1.60;0.90;;;;;;;16.17;55.43;100454.91;4972570;28;20879;-71
2022/05/22 03:25:49;;;;;;;1.15;1.10;;;;;;;16.12;55.44;100460.41;4971944;28;20447;-71
2022/05/22 03:28:15;;;;;;;3.90;1.03;;;;;;;16.05;55.67;100448.97;4972659;28;20385;-71
2022/05/22 03:30:41;;;;;;;1.77;1.08;;;;;;;16.01;55.91;100456.09;4972767;28;20455;-72
2022/05/22 03:33:06;;;;;;;4.83;0.97;;;;;;;15.99;55.94;100452.81;4972576;28;20416;-72
2022/05/22 03:35:32;;;;;;;1.45;0.80;;;;;;;15.97;56.18;100444.88;4971764;28;20443;-71
2022/05/22 03:37:57;;;;;;;2.10;0.87;;;;;;;15.96;56.02;100450.66;4972704;28;20400;-71
2022/05/22 03:40:22;;;;;;;1.93;1.10;;;;;;;15.97;56.13;100441.38;4971186;28;20392;-71
2022/05/22 03:42:48;;;;;;;2.90;1.10;;;;;;;15.94;56.20;100444.63;4972743;28;20415;-71
2022/05/22 03:45:14;;;;;;;1.10;1.00;;;;;;;15.92;56.15;100441.38;4971923;28;20404;-71
2022/05/22 03:47:39;;;;;;;2.60;1.13;;;;;;;15.86;56.43;100437.03;4974636;28;20899;-71
2022/05/22 03:50:09;;;;;;;1.27;1.03;;;;;;;15.81;56.42;100428.84;4976635;28;20495;-71
2022/05/22 03:52:36;;;;;;;2.25;0.93;;;;;;;15.77;56.52;100425.88;4975811;28;20423;-71
2022/05/22 03:55:04;;;;;;;2.90;1.30;;;;;;;15.74;56.35;100428.34;4964854;28;20420;-72
2022/05/22 03:57:29;;;;;;;1.52;1.10;;;;;;;15.69;56.61;100433.81;4975661;28;20809;-71
2022/05/22 03:59:54;;;;;;;1.90;1.10;;;;;;;15.65;56.95;100430.81;4976322;28;20409;-71
2022/05/22 04:02:20;;;;;;;1.87;1.00;;;;;;;15.62;57.08;100431.38;4976383;28;20396;-71
2022/05/22 04:04:45;;;;;;;2.20;0.93;;;;;;;15.63;57.24;100441.22;4975665;28;20799;-71
2022/05/22 04:07:11;;;;;;;1.30;0.73;;;;;;;15.65;57.36;100427.25;4975117;28;20388;-71
2022/05/22 04:09:36;;;;;;;0.77;0.77;;;;;;;15.64;57.50;100421.00;4975252;28;20415;-71
2022/05/22 04:12:09;;;;;;;0.73;0.73;;;;;;;15.62;57.59;100420.47;4976312;28;20503;-71
2022/05/22 04:14:34;;;;;;;1.23;0.77;;;;;;;15.67;57.54;100425.09;4976011;28;20419;-71
2022/05/22 04:17:00;;;;;;;1.00;0.90;;;;;;;15.71;57.63;100421.50;4976337;28;20396;-71
2022/05/22 04:19:25;;;;;;;5.57;1.43;;;;;;;15.77;57.75;100425.06;4975281;28;20875;-72
2022/05/22 04:21:50;;;;;;;3.40;1.10;;;;;;;15.80;57.76;100419.03;4976038;28;20450;-71
2022/05/22 04:27:06;;;;;;;1.30;1.10;;;;;;;15.90;57.86;100413.53;4971680;28;20502;-70
2022/05/22 04:29:33;;;;;;;5.78;1.10;;;;;;;15.97;57.76;100414.81;4974956;28;20416;-70
2022/05/22 04:31:59;;;;;;;1.40;1.05;;;;;;;16.03;57.28;100410.16;4976137;28;20474;-70
2022/05/22 04:34:25;;;;;;;2.22;1.10;;;;;;;16.05;57.30;100416.97;4975509;28;20795;-70
2022/05/22 04:36:50;;;;;;;2.00;1.35;;;;;;;16.07;57.24;100408.47;4975998;28;20883;-71
2022/05/22 04:39:15;;;;;;;2.93;1.40;;;;;;;16.12;57.25;100408.47;4971476;28;20412;-70
2022/05/22 04:41:41;;;;;;;1.30;0.90;;;;;;;16.13;57.19;100410.13;4973954;28;20404;-70
2022/05/22 04:44:06;;;;;;;1.98;1.10;;;;;;;16.15;57.05;100418.84;4974975;28;20416;-70
2022/05/22 04:46:31;;;;;;;1.33;1.13;;;;;;;16.17;57.20;100416.63;4977900;28;20883;-70
2022/05/22 04:48:57;;;;;;;1.87;1.30;;;;;;;16.17;57.30;100413.09;4973655;28;20478;-70
2022/05/22 04:51:22;;;;;;;1.80;1.30;;;;;;;16.17;57.35;100410.38;4971418;28;20467;-70
2022/05/22 04:53:47;;;;;;;2.00;1.07;;;;;;;16.18;57.49;100401.03;4972013;28;20483;-71
2022/05/22 04:56:13;;;;;;;1.30;1.00;;;;;;;16.20;57.98;100407.06;4973663;28;20779;-71
2022/05/22 04:58:38;;;;;;;1.30;1.20;;;;;;;16.20;58.32;100405.13;4969513;28;20949;-71
2022/05/22 05:01:06;;;;;;;2.37;1.17;;;;;;;16.23;58.14;100410.06;4975271;28;20412;-70
2022/05/22 05:03:31;;;;;;;2.70;0.90;;;;;;;16.29;58.14;100400.72;4974780;28;20414;-70
2022/05/22 05:05:57;;;;;;;1.50;1.40;;;;;;;16.35;58.27;100417.88;4971859;28;20420;-71
2022/05/22 05:08:23;;;;;;;1.40;1.30;;;;;;;16.35;58.44;100409.69;4973933;28;20397;-71
2022/05/22 05:10:50;;;;;;;1.10;0.98;;;;;;;16.36;58.72;100400.38;4972204;28;20499;-71
2022/05/22 05:13:15;;;;;;;2.90;0.90;;;;;;;16.41;58.62;100409.38;4972806;28;20416;-71
2022/05/22 05:15:40;;;;;;;2.17;1.00;;;;;;;16.41;58.62;100405.81;4972548;28;20779;-71
2022/05/22 05:18:05;;;;;;;1.20;1.07;;;;;;;16.40;58.77;100409.66;4971187;28;20470;-71
2022/05/22 05:20:31;;;;;;;1.10;1.10;;;;;;;16.43;58.97;100400.88;4972081;28;20447;-71
2022/05/22 05:22:56;;;;;;;1.33;1.20;;;;;;;16.45;59.11;100399.50;4972462;28;20415;-71
2022/05/22 05:25:22;;;;;;;2.03;1.43;;;;;;;16.46;59.49;100398.41;4971400;28;20783;-72
2022/05/22 05:27:47;;;;;;;2.80;1.80;;;;;;;16.48;59.62;100400.84;4973591;28;20419;-71
2022/05/22 05:30:13;;;;;;;3.20;1.40;;;;;;;16.47;59.79;100405.50;4968449;28;20421;-71
2022/05/22 05:32:39;;;;;;;2.80;1.70;;;;;;;16.45;60.19;100398.69;4970627;28;21030;-72
2022/05/22 05:35:09;;;;;;;2.07;1.63;;;;;;;16.51;60.06;100400.25;4969030;28;20428;-71
2022/05/22 05:37:35;;;;;;;2.88;1.40;;;;;;;16.54;60.11;100400.50;4969132;28;20470;-71
2022/05/22 05:40:00;;;;;;;1.60;1.50;;;;;;;16.55;60.15;100406.84;4971050;28;20427;-71
2022/05/22 05:42:31;;;;;;;1.57;1.47;;;;;;;16.54;60.29;100403.25;4971422;28;20412;-71
2022/05/22 05:44:56;;;;;;;3.95;1.70;;;;;;;16.60;60.48;100402.13;4971097;28;20408;-71
2022/05/22 05:47:22;;;;;;;2.53;1.47;;;;;;;16.68;60.29;100399.91;4969591;28;20915;-71
2022/05/22 05:49:47;;;;;;;2.30;1.70;;;;;;;16.75;60.23;100398.47;4972216;28;20404;-71
2022/05/22 05:52:12;;;;;;;3.37;2.27;;;;;;;16.81;60.37;100399.22;4969134;28;20424;-71
2022/05/22 05:54:37;;;;;;;2.80;1.63;;;;;;;16.83;60.49;100399.75;4966990;28;20428;-71
2022/05/22 05:57:03;;;;;;;3.13;1.47;;;;;;;16.87;60.45;100398.06;4970107;28;20416;-72
2022/05/22 05:59:28;;;;;;;4.20;1.73;;;;;;;16.85;60.42;100392.09;4964827;28;20429;-71
2022/05/22 06:01:54;;;;;;;2.57;1.63;;;;;;;16.84;60.67;100394.00;4967825;28;20415;-71
2022/05/22 06:04:20;;;;;;;1.83;1.67;;;;;;;16.86;60.48;100391.00;4967775;28;20439;-71
2022/05/22 06:06:45;;;;;;;2.30;1.70;;;;;;;16.92;60.58;100401.59;4971561;28;20420;-71
2022/05/22 06:09:10;;;;;;;3.78;2.28;;;;;;;17.06;60.34;100398.97;4972763;28;20446;-71
2022/05/22 06:11:36;;;;;;;5.90;2.30;;;;;;;17.01;60.54;100399.88;4970237;28;20488;-72
2022/05/22 06:14:01;;;;;;;3.27;1.87;;;;;;;17.07;60.50;100398.72;4971322;28;20419;-71
2022/05/22 06:16:27;;;;;;;2.20;2.00;;;;;;;17.15;60.68;100400.00;4969787;28;20420;-71
2022/05/22 06:18:52;;;;;;;2.40;2.20;;;;;;;17.17;60.69;100399.69;4972586;28;20843;-71
2022/05/22 06:21:20;;;;;;;2.93;1.93;;;;;;;17.22;60.42;100395.00;4969231;28;20512;-71
2022/05/22 06:23:45;;;;;;;3.13;1.98;;;;;;;17.25;60.41;100401.81;4970023;28;20834;-71
2022/05/22 06:26:15;;;;;;;3.47;2.20;;;;;;;17.26;60.54;100396.03;4972251;28;20515;-71
2022/05/22 06:28:40;;;;;;;2.78;1.90;;;;;;;17.30;60.36;100405.31;4969415;28;20423;-71
2022/05/22 06:31:07;;;;;;;4.70;1.73;;;;;;;17.36;60.42;100403.31;4970368;28;20420;-71
2022/05/22 06:33:34;;;;;;;3.10;1.70;;;;;;;17.46;60.19;100412.25;4968072;28;20451;-71
2022/05/22 06:35:59;;;;;;;1.77;1.60;;;;;;;17.48;60.25;100412.78;4969275;28;20424;-71
2022/05/22 06:41:11;;;;;;;5.07;2.47;;;;;;;17.59;59.98;100405.28;4971978;28;20434;-71
2022/05/22 06:43:37;;;;;;;7.20;2.15;;;;;;;17.59;59.86;100405.28;4972894;28;20479;-72
2022/05/22 06:46:03;;;;;;;2.60;1.95;;;;;;;17.60;59.86;100420.63;4962732;28;20509;-72
2022/05/22 06:48:28;;;;;;;3.20;1.85;;;;;;;17.68;59.88;100416.44;4968935;28;20937;-71
2022/05/22 06:50:54;;;;;;;3.27;2.33;;;;;;;17.69;59.76;100413.38;4969389;28;20408;-71
2022/05/22 06:53:19;;;;;;;3.57;2.00;;;;;;;17.73;59.90;100417.19;4969431;28;20420;-71
2022/05/22 06:55:44;;;;;;;2.65;1.95;;;;;;;17.80;60.03;100406.66;4966077;28;20416;-71
2022/05/22 06:58:09;;;;;;;2.77;1.40;;;;;;;17.84;59.94;100409.66;4970901;28;20435;-72
2022/05/22 07:00:35;;;;;;;1.87;1.70;;;;;;;17.88;59.48;100410.69;4981736;28;20465;-72
2022/05/22 07:03:04;;;;;;;2.92;1.85;;;;;;;17.93;59.22;100411.44;4968279;28;20844;-73
2022/05/22 07:05:29;;;;;;;4.20;1.70;;;;;;;18.00;59.58;100402.84;4970192;28;20412;-70
2022/05/22 07:07:55;;;;;;;4.20;1.73;;;;;;;18.06;59.00;100401.66;4971372;28;20764;-71
2022/05/22 07:11:38;;;;;;;3.07;1.63;;;;;;;18.10;58.36;100403.53;4972982;28;20532;-71
2022/05/22 07:13:05;;;;;;;2.03;1.70;;;;;;;18.13;58.73;100397.44;4967157;28;20415;-70
2022/05/22 07:15:31;;;;;;;3.63;1.80;;;;;;;18.14;59.10;100398.28;4971257;28;20416;-71
2022/05/22 07:17:56;;;;;;;3.07;1.97;;;;;;;18.11;59.48;100391.41;4972785;28;20528;-71
2022/05/22 07:20:21;;;;;;;4.23;1.60;;;;;;;18.05;59.75;100394.53;4971513;28;20428;-71
2022/05/22 07:22:46;;;;;;;1.60;1.50;;;;;;;18.08;59.61;100391.19;4964082;28;20474;-71
2022/05/22 07:25:12;;;;;;;1.73;1.40;;;;;;;18.11;59.10;100391.41;4967957;28;20899;-70
2022/05/22 07:27:37;;;;;;;2.97;1.55;;;;;;;18.17;58.78;100380.41;4970288;28;20408;-71
2022/05/22 07:30:03;;;;;;;2.03;1.87;;;;;;;18.15;58.18;100380.69;4970818;28;20412;-71
2022/05/22 07:32:28;;;;;;;3.37;2.00;;;;;;;18.19;58.02;100386.38;4972689;28;20502;-72
2022/05/22 07:34:53;;;;;;;2.10;1.40;;;;;;;18.24;57.59;100387.16;4968789;28;20541;-71
2022/05/22 07:37:19;;;;;;;2.00;1.40;;;;;;;18.27;57.25;100383.00;4970488;28;20424;-72
2022/05/22 07:39:44;;;;;;;2.60;1.30;;;;;;;18.29;57.12;100380.75;4970050;28;20422;-71
2022/05/22 07:42:09;;;;;;;2.80;1.43;;;;;;;18.32;56.39;100378.22;4971902;28;20420;-71
2022/05/22 07:44:37;;;;;;;1.93;1.43;;;;;;;18.35;56.33;100376.81;4970560;28;20767;-73
2022/05/22 07:47:03;;;;;;;3.55;1.77;;;;;;;18.38;57.04;100373.47;4967453;28;20422;-71
2022/05/22 07:52:12;;;;;;;2.60;1.73;;;;;;;18.46;56.94;100375.56;4972585;28;20430;-71
2022/05/22 07:54:39;;;;;;;3.93;1.60;;;;;;;18.55;56.98;100366.38;4972748;28;20416;-70
2022/05/22 07:57:06;;;;;;;2.63;1.10;;;;;;;18.60;56.68;100366.28;4972630;28;20459;-73
2022/05/22 07:59:36;;;;;;;1.63;1.38;;;;;;;18.64;56.63;100355.50;4971231;28;20404;-72
2022/05/22 08:02:03;;;;;;;4.82;1.80;;;;;;;18.70;56.85;100353.50;4969617;28;20416;-72
2022/05/22 08:04:29;;;;;;;3.55;1.42;;;;;;;18.77;56.52;100354.72;4970384;28;20422;-71
2022/05/22 08:06:55;;;;;;;3.85;1.98;;;;;;;18.78;56.38;100352.81;4972509;28;20396;-71
2022/05/22 08:09:20;;;;;;;3.63;1.80;;;;;;;18.83;56.63;100355.47;4972559;28;20400;-71
2022/05/22 08:11:45;;;;;;;5.43;1.50;;;;;;;18.90;56.44;100348.44;4968010;28;20784;-71
2022/05/22 08:14:11;;;;;;;3.20;1.43;;;;;;;18.93;56.71;100347.88;4969081;28;20416;-71
2022/05/22 08:16:37;;;;;;;1.77;1.60;;;;;;;18.96;56.84;100347.25;4964283;28;20407;-71
2022/05/22 08:19:02;;;;;;;2.03;1.77;;;;;;;19.04;56.79;100340.22;4968443;28;20404;-71
2022/05/22 08:21:27;;;;;;;2.03;1.50;;;;;;;19.13;56.35;100338.44;4983935;28;20412;-71
2022/05/22 08:23:53;;;;;;;3.90;1.58;;;;;;;19.17;56.42;100329.25;4969365;28;20408;-72
2022/05/22 08:26:18;;;;;;;4.90;1.77;;;;;;;19.21;56.67;100332.22;4968047;28;20459;-72
2022/05/22 08:28:44;;;;;;;3.10;1.70;;;;;;;19.29;56.68;100319.72;4969405;28;20499;-72
2022/05/22 08:31:11;;;;;;;3.97;1.92;;;;;;;19.37;56.44;100327.22;4968679;28;20518;-72
2022/05/22 08:33:36;;;;;;;2.60;1.43;;;;;;;19.46;56.30;100319.94;4968853;28;20427;-72
2022/05/22 08:36:03;;;;;;;3.38;2.17;;;;;;;19.51;56.66;100322.56;4975405;28;20408;-72
2022/05/22 08:38:29;;;;;;;3.22;2.20;;;;;;;19.59;56.39;100327.34;4972525;28;20841;-72
2022/05/22 08:41:19;;;;;;;2.15;1.70;;;;;;;19.68;56.25;100320.00;4972963;28;20443;-73
2022/05/22 08:43:51;;;;;;;3.08;1.45;;;;;;;19.78;55.58;100318.97;4963604;28;20430;-73
2022/05/22 08:46:25;;;;;;;3.85;1.70;;;;;;;19.84;55.13;100321.28;4967235;28;20450;-72
2022/05/22 08:48:57;;;;;;;1.60;1.48;;;;;;;19.91;54.58;100324.44;4962500;28;20819;-71
2022/05/22 08:51:34;;;;;;;3.15;1.38;;;;;;;20.00;53.18;100324.50;4974674;28;20427;-71
2022/05/22 08:54:22;;;;;;;2.95;1.50;;;;;;;20.10;52.25;100308.56;4972431;28;20466;-72
2022/05/22 08:59:34;;;;;;;3.03;1.48;;;;;;;20.40;51.85;100304.28;4969602;28;20447;-72
2022/05/22 09:02:24;;;;;;;1.77;1.20;;;;;;;20.51;50.76;100296.59;4968566;28;20900;-72
2022/05/22 09:05:04;;;;;;;2.40;1.08;;;;;;;20.62;50.83;100293.25;4963600;28;20684;-72
2022/05/22 09:07:40;;;;;;;4.13;1.48;;;;;;;20.71;50.72;100294.09;4969733;28;20444;-72
2022/05/22 09:10:11;;;;;;;1.88;1.30;;;;;;;20.80;49.72;100285.09;4967577;28;20462;-72
2022/05/22 09:13:04;;;;;;;1.42;1.05;;;;;;;20.91;49.16;100278.97;4968115;28;20457;-72
2022/05/22 09:15:35;;;;;;;3.50;1.13;;;;;;;21.00;48.88;100285.34;4962050;28;20499;-72
2022/05/22 09:18:23;;;;;;;3.30;1.00;;;;;;;21.10;48.07;100278.75;4965131;28;20883;-71
2022/05/22 09:20:57;;;;;;;4.10;1.25;;;;;;;21.19;46.56;100269.38;4970091;28;20420;-72
2022/05/22 09:23:49;;;;;;;2.00;0.90;;;;;;;21.29;45.81;100279.31;4967944;28;20795;-70
2022/05/22 09:26:29;;;;;;;3.58;0.80;;;;;;;21.41;44.45;100271.22;4967678;28;20436;-74
2022/05/22 09:29:11;;;;;;;1.47;0.70;;;;;;;21.56;44.77;100268.03;4967909;28;20515;-73
2022/05/22 09:31:50;;;;;;;1.73;0.80;;;;;;;21.70;44.60;100268.66;4956605;28;20427;-73
2022/05/22 09:34:18;;;;;;;1.65;1.10;;;;;;;21.84;43.15;100268.50;4955291;28;20424;-72
2022/05/22 09:37:04;;;;;;;1.50;0.90;;;;;;;21.93;43.21;100263.03;4961236;28;20911;-73
2022/05/22 09:39:52;;;;;;;2.80;0.98;;;;;;;21.99;43.52;100259.78;4961690;28;20965;-73
2022/05/22 09:42:20;;;;;;;1.20;0.93;;;;;;;22.02;43.84;100263.84;4963406;28;20443;-73
2022/05/22 09:45:16;;;;;;;2.75;1.02;;;;;;;22.21;43.56;100258.78;4976450;28;20417;-73
2022/05/22 09:47:54;;;;;;;2.80;0.77;;;;;;;22.39;41.83;100252.13;4962288;28;20416;-73
2022/05/22 09:50:28;;;;;;;3.03;0.98;;;;;;;22.42;41.91;100247.88;4960315;28;20477;-72
2022/05/22 09:53:05;;;;;;;3.95;0.70;;;;;;;22.71;41.74;100253.50;4959452;28;20517;-73
2022/05/22 09:55:50;;;;;;;1.00;0.68;;;;;;;23.24;41.09;100258.47;4966139;28;20415;-72
2022/05/22 09:58:22;;;;;;;7.67;0.70;;;;;;;23.74;39.92;100253.75;4963615;28;20486;-72
2022/05/22 10:01:02;;;;;;;1.48;0.70;;;;;;;24.43;37.52;100250.41;4961457;28;20467;-72
2022/05/22 10:03:48;;;;;;;1.17;0.70;;;;;;;24.90;37.01;100245.28;4961954;28;20420;-72
2022/05/22 10:06:31;;;;;;;2.72;0.60;;;;;;;25.77;34.86;100240.16;4962941;28;20411;-72
2022/05/22 10:09:06;;;;;;;1.42;0.70;;;;;;;26.97;33.28;100231.56;4963096;28;20416;-72
2022/05/22 10:11:40;;;;;;;2.03;0.63;;;;;;;28.07;31.65;100232.09;4959964;28;20416;-72
2022/05/22 10:14:35;;;;;;;1.20;0.68;;;;;;;28.87;30.59;100220.06;4962263;28;20826;-72
2022/05/22 10:17:30;;;;;;;0.60;0.52;;;;;;;29.49;28.91;100222.25;4961573;28;20495;-73
2022/05/22 10:20:01;;;;;;;1.50;0.65;;;;;;;29.93;28.48;100219.69;4960589;28;20447;-72
2022/05/22 10:22:51;;;;;;;1.70;0.70;;;;;;;30.32;28.69;100214.53;4969536;28;20776;-72
2022/05/22 10:25:36;;;;;;;2.30;0.70;;;;;;;30.67;27.98;100212.09;4955575;28;20413;-73
2022/05/22 10:28:06;;;;;;;1.33;1.10;;;;;;;30.86;27.51;100205.47;4966357;28;20779;-71
2022/05/22 10:30:58;;;;;;;0.90;0.70;;;;;;;31.28;27.44;100207.81;4970624;28;20448;-72
2022/05/22 10:33:54;;;;;;;2.80;0.90;;;;;;;31.43;27.07;100194.69;4962065;28;20428;-73
2022/05/22 10:36:25;;;;;;;1.50;0.82;;;;;;;31.84;26.19;100198.94;4958077;28;20506;-72
2022/05/22 10:39:09;;;;;;;2.92;1.13;;;;;;;32.43;26.00;100189.13;4958736;28;20521;-71
2022/05/22 10:44:35;;;;;;;0.73;0.55;;;;;;;32.57;24.89;100183.53;4959604;28;20487;-73
2022/05/22 10:47:02;;;;;;;1.17;0.70;;;;;;;32.22;25.37;100186.25;4974762;28;20441;-73
2022/05/22 10:49:45;;;;;;;1.10;0.70;;;;;;;32.00;25.85;100178.97;4974888;28;20880;-73
2022/05/22 10:52:14;;;;;;;1.60;0.60;;;;;;;32.27;25.24;100174.66;4964544;28;20428;-73
2022/05/22 10:54:50;;;;;;;1.55;0.80;;;;;;;32.41;25.23;100166.25;4958022;28;21168;-73
2022/05/22 10:57:23;;;;;;;2.05;0.85;;;;;;;32.09;25.89;100171.81;4974617;28;20412;-70
2022/05/22 10:59:49;;;;;;;2.33;0.70;;;;;;;31.46;25.74;100161.09;4958731;28;20946;-73
2022/05/22 11:02:25;;;;;;;1.05;0.65;;;;;;;31.71;26.10;100158.47;4960557;28;20430;-71
2022/05/22 11:04:52;;;;;;;1.65;0.77;;;;;;;31.46;26.58;100149.09;4959042;28;20499;-73
2022/05/22 11:07:41;;;;;;;2.70;0.80;;;;;;;31.91;26.17;100148.53;4959971;28;20408;-70
2022/05/22 11:10:10;;;;;;;0.70;0.70;;;;;;;32.16;25.72;100143.81;4958197;28;20422;-70
2022/05/22 11:12:35;;;;;;;0.40;0.40;;;;;;;32.38;25.55;100151.03;4958350;28;20468;-73
2022/05/22 11:15:23;;;;;;;1.00;0.70;;;;;;;32.66;24.09;100150.28;4959589;28;20424;-73
2022/05/22 11:17:49;;;;;;;2.38;0.65;;;;;;;33.08;23.80;100145.81;4959339;28;20426;-71
2022/05/22 11:20:17;;;;;;;1.93;0.57;;;;;;;33.37;23.50;100147.38;4959012;28;20779;-73
2022/05/22 11:23:10;;;;;;;1.20;0.40;;;;;;;33.34;23.32;100145.38;4962667;28;20412;-70
2022/05/22 11:25:53;;;;;;;0.60;0.60;;;;;;;33.58;23.37;100136.06;4959310;28;20458;-73
2022/05/22 11:28:37;;;;;;;0.60;0.60;;;;;;;33.46;23.17;100127.28;4959239;28;20414;-70
2022/05/22 11:31:37;;;;;;;0.30;0.30;;;;;;;33.19;23.50;100126.97;4959487;28;20412;-73
2022/05/22 11:34:08;;;;;;;1.05;0.60;;;;;;;33.06;23.18;100125.78;4959786;28;20420;-70
2022/05/22 11:36:52;;;;;;;0.57;0.57;;;;;;;33.06;23.08;100117.34;4974558;28;20436;-71
2022/05/22 11:39:41;;;;;;;1.80;0.70;;;;;;;32.82;23.61;100124.59;4962689;28;20416;-73
2022/05/22 11:42:18;;;;;;;4.90;0.90;;;;;;;33.13;23.34;100126.56;4966203;28;20427;-73
2022/05/22 11:45:10;;;;;;;3.55;0.60;;;;;;;32.76;23.64;100131.84;4969390;28;20424;-73
2022/05/22 11:48:06;;;;;;;2.00;0.70;;;;;;;32.62;23.15;100131.84;4961613;28;20451;-72
2022/05/22 11:50:42;;;;;;;0.70;0.50;;;;;;;32.28;23.23;100120.16;4956143;28;20422;-73
2022/05/22 11:53:23;;;;;;;0.73;0.73;;;;;;;32.39;23.47;100118.19;4959316;28;20929;-73
2022/05/22 11:56:16;;;;;;;0.50;0.47;;;;;;;32.72;23.84;100108.59;4960379;28;20424;-73
2022/05/22 11:58:55;;;;;;;0.90;0.60;;;;;;;33.03;23.60;100098.50;4960305;28;20446;-73